createdAt,value
2022-10-28T07:52:29.320Z,100531.75
2022-10-28T07:54:58.662Z,100524.97
2022-10-28T07:57:29.443Z,100524.31
2022-10-28T07:59:58.338Z,100524.09
2022-10-28T08:27:44.314Z,100621.41
2022-10-28T08:30:12.794Z,100642.69
2022-10-28T08:32:41.105Z,100664.69
2022-10-28T08:35:10.920Z,100674.28
2022-10-28T08:37:38.967Z,100684.53
2022-10-28T08:40:07.899Z,100701.03
2022-10-28T08:42:49.955Z,100719.75
2022-10-28T08:45:37.475Z,100735.19
2022-10-28T08:48:33.437Z,100777.88
2022-10-28T08:51:18.085Z,100803.09
2022-10-28T08:53:54.988Z,100828.53
2022-10-28T08:56:25.917Z,100854.44
2022-10-28T08:58:57.285Z,100890.69
2022-10-28T09:01:43.070Z,100917.03
2022-10-28T09:04:29.035Z,100942.03
2022-10-28T09:06:58.231Z,100961.25
2022-10-28T10:27:13.804Z,101428.03
2022-10-28T10:29:52.189Z,101427.59
2022-10-28T19:06:22.834Z,100978.91
2022-10-28T19:08:56.176Z,100989.00
2022-10-28T19:11:30.353Z,100998.13
2022-10-28T19:14:00.490Z,100993.34
2022-10-28T19:16:32.119Z,100992.84
2022-10-28T19:19:02.371Z,100999.81
2022-10-28T19:21:30.913Z,101012.28
2022-10-28T19:24:01.671Z,101015.44
2022-10-28T19:26:35.134Z,101018.44
2022-10-28T19:29:05.089Z,101015.34
2022-10-28T19:31:37.365Z,101015.97
2022-10-28T19:34:05.886Z,101019.66
2022-10-28T19:36:34.088Z,101019.41
2022-10-28T19:39:03.334Z,101018.84
2022-10-28T19:41:34.613Z,101027.88
2022-10-28T19:44:04.203Z,101034.50
2022-10-28T19:46:37.157Z,101038.84
2022-10-28T19:49:06.365Z,101036.50
2022-10-28T19:51:42.011Z,101046.63
2022-10-28T19:54:16.059Z,101048.97
2022-10-28T19:56:50.483Z,101046.63
2022-10-28T19:59:42.626Z,101062.88
2022-10-28T20:02:16.424Z,101051.16
2022-10-28T20:04:47.867Z,101057.91
2022-10-28T20:07:15.889Z,101060.84
2022-10-28T20:09:44.094Z,101068.25
2022-10-28T20:12:13.788Z,101064.06
2022-10-28T20:14:46.054Z,101068.41
2022-10-28T20:17:15.647Z,101076.81
2022-10-28T20:19:47.854Z,101093.13
2022-10-28T20:22:17.652Z,101096.34
2022-10-28T20:24:50.796Z,101092.41
2022-10-28T20:27:20.967Z,101093.16
2022-10-28T20:29:55.163Z,101089.00
2022-10-28T20:32:26.796Z,101078.31
2022-10-28T20:34:57.584Z,101079.16
2022-10-28T20:37:26.544Z,101093.34
2022-10-28T20:39:58.339Z,101085.41
2022-10-28T20:42:31.925Z,101088.75
2022-10-28T20:45:01.323Z,101084.38
2022-10-28T20:47:30.978Z,101088.31
2022-10-28T20:50:00.746Z,101095.53
2022-10-28T20:52:28.988Z,101088.88
2022-10-28T20:54:58.186Z,101078.34
2022-10-28T20:57:25.938Z,101055.78
2022-10-28T20:59:54.328Z,101045.97
2022-10-28T21:02:22.789Z,101044.22
2022-10-28T21:04:51.249Z,101038.16
2022-10-28T21:07:20.722Z,101035.88
2022-10-28T21:09:49.742Z,101025.19
2022-10-28T21:12:19.312Z,101050.91
2022-10-28T21:14:47.314Z,101047.72
2022-10-28T21:17:16.172Z,101033.84
2022-10-28T21:19:44.363Z,101035.56
2022-10-28T21:22:13.220Z,101031.69
2022-10-28T21:24:41.123Z,101024.34
2022-10-28T21:27:09.002Z,101021.16
2022-10-28T21:29:40.004Z,101023.03
2022-10-28T21:32:07.997Z,101011.03
2022-10-28T21:34:36.302Z,101014.25
2022-10-28T21:37:05.918Z,101007.44
2022-10-28T21:39:34.077Z,101003.25
2022-10-28T21:42:04.889Z,101003.81
2022-10-28T21:44:33.046Z,101004.09
2022-10-28T21:47:02.033Z,100996.88
2022-10-28T21:49:29.722Z,100998.78
2022-10-28T21:51:58.806Z,100995.31
2022-10-28T21:54:26.995Z,100989.84
2022-10-28T21:56:55.354Z,100992.88
2022-10-28T21:59:23.552Z,100991.13
2022-10-28T22:01:52.648Z,100988.81
2022-10-28T22:04:20.673Z,100992.56
2022-10-28T22:06:49.639Z,100978.59
2022-10-28T22:09:17.684Z,100977.72
2022-10-28T22:11:45.714Z,100976.69
2022-10-28T22:14:16.510Z,100976.25
2022-10-28T22:16:44.455Z,100976.13
2022-10-28T22:19:15.819Z,100973.97
2022-10-28T22:21:43.875Z,100976.56
2022-10-28T22:24:12.929Z,100974.38
2022-10-28T22:26:40.893Z,100974.09
2022-10-28T22:29:08.902Z,100967.59
2022-10-28T22:31:38.971Z,100970.34
2022-10-28T22:34:08.227Z,100973.78
2022-10-28T22:36:38.843Z,100961.13
2022-10-28T22:39:08.203Z,100982.00
2022-10-28T22:41:37.316Z,100983.03
2022-10-28T22:44:07.973Z,100983.03
2022-10-28T22:46:37.072Z,100985.34
2022-10-28T22:49:06.282Z,100987.94
2022-10-28T22:51:34.223Z,101000.94
2022-10-28T22:54:03.404Z,100978.84
2022-10-28T22:56:32.761Z,100976.41
2022-10-28T22:59:02.449Z,100972.38
2022-10-28T23:01:31.871Z,100971.00
2022-10-28T23:13:25.929Z,100974.31
